Terminal Aerodrome Forecast
Issued by NWS

Home | Current Version | Previous Version | Text Only | Print | Product List | Glossary On
Versions: 1 2 3 4 5 6 7 8 9 10 11 12 13 14 15 16 17
000
FTUS44 KLIX 072339
TAFMCB
TAF
KMCB 072339Z 0800/0824 VRB03KT P6SM VCTS SCT035CB BKN250
      TEMPO 0800/0801 VRB15G25KT 3SM TSRA BKN035CB
     FM080200 VRB03KT P6SM SCT250
     FM080900 VRB03KT 3SM BR FEW250
     FM081300 19007KT P6SM SCT030=

USA.gov is the U.S. government's official web portal to all federal, state and local government web resources and services.